Time;durP1;ratioP1;P1;durP2;ratioP2;P2;SDS_P1;SDS_P2;PMS_P1;PMS_P2;Temp;Humidity;BMP_temperature;BMP_pressure;BME280_temperature;BME280_humidity;BME280_pressure;Samples;Min_cycle;Max_cycle;Signal;HPM_P1;HPM_P2
2020/12/30 00:02:16;;;;;;;;;26.33;26.33;;;;;;;;5040046;28;8850;-72
2020/12/30 00:04:42;;;;;;;;;37.67;33.00;;;;;;;;5040785;28;8950;-72
2020/12/30 00:07:08;;;;;;;;;31.33;27.33;;;;;;;;5047314;28;8838;-72
2020/12/30 00:09:35;;;;;;;;;29.67;24.67;;;;;;;;5043381;28;8853;-72
2020/12/30 00:12:01;;;;;;;;;26.33;24.67;;;;;;;;5049599;28;8927;-72
2020/12/30 00:14:26;;;;;;;;;23.00;20.00;;;;;;;;5044977;28;8818;-72
2020/12/30 00:16:52;;;;;;;;;21.33;20.00;;;;;;;;5045158;28;8853;-72
2020/12/30 00:19:18;;;;;;;;;22.33;18.33;;;;;;;;5037907;28;8838;-72
2020/12/30 00:21:44;;;;;;;;;20.00;16.00;;;;;;;;5049033;28;8845;-72
2020/12/30 00:24:10;;;;;;;;;19.67;17.33;;;;;;;;5045165;28;8950;-72
2020/12/30 00:26:37;;;;;;;;;13.00;12.67;;;;;;;;5039065;28;8829;-72
2020/12/30 00:29:03;;;;;;;;;20.33;15.33;;;;;;;;5039429;28;8834;-73
2020/12/30 00:31:29;;;;;;;;;13.00;13.00;;;;;;;;5040916;28;8853;-72
2020/12/30 00:33:55;;;;;;;;;12.00;12.00;;;;;;;;5044899;28;8814;-73
2020/12/30 00:36:21;;;;;;;;;16.33;14.33;;;;;;;;5037349;28;8854;-73
2020/12/30 00:38:47;;;;;;;;;11.00;11.00;;;;;;;;5041537;28;8841;-72
2020/12/30 00:41:13;;;;;;;;;10.33;10.00;;;;;;;;5041198;28;8841;-73
2020/12/30 00:43:40;;;;;;;;;10.33;9.00;;;;;;;;5040645;28;8846;-71
2020/12/30 00:46:06;;;;;;;;;5.33;5.00;;;;;;;;5038925;28;8845;-72
2020/12/30 00:48:32;;;;;;;;;9.33;7.67;;;;;;;;5039056;28;8826;-73
2020/12/30 00:50:58;;;;;;;;;9.00;5.00;;;;;;;;5039899;28;8945;-72
2020/12/30 00:53:24;;;;;;;;;10.33;5.33;;;;;;;;5037648;28;8872;-73
2020/12/30 00:55:50;;;;;;;;;5.00;5.00;;;;;;;;5041154;28;8853;-73
2020/12/30 00:58:16;;;;;;;;;6.33;5.33;;;;;;;;5040963;28;8876;-72
2020/12/30 01:00:43;;;;;;;;;6.33;3.67;;;;;;;;5037856;28;8858;-73
2020/12/30 01:03:09;;;;;;;;;6.00;3.00;;;;;;;;5043559;28;8881;-73
2020/12/30 01:05:35;;;;;;;;;5.33;3.00;;;;;;;;5042300;28;8898;-74
2020/12/30 01:08:01;;;;;;;;;6.33;5.00;;;;;;;;5042335;28;8850;-73
2020/12/30 01:10:27;;;;;;;;;6.00;2.00;;;;;;;;5043611;28;8830;-72
2020/12/30 01:12:53;;;;;;;;;3.67;2.00;;;;;;;;5041082;28;8853;-72
2020/12/30 01:15:19;;;;;;;;;3.00;3.00;;;;;;;;5044523;28;8842;-73
2020/12/30 01:17:45;;;;;;;;;5.00;3.00;;;;;;;;5041065;28;8857;-72
2020/12/30 01:20:11;;;;;;;;;3.00;2.33;;;;;;;;5043591;28;8854;-72
2020/12/30 01:22:37;;;;;;;;;2.67;1.67;;;;;;;;5041795;28;11517;-73
2020/12/30 01:25:03;;;;;;;;;3.00;1.33;;;;;;;;5042618;28;8852;-73
2020/12/30 01:27:29;;;;;;;;;1.00;0.00;;;;;;;;5042664;28;8857;-72
2020/12/30 01:29:55;;;;;;;;;1.33;1.33;;;;;;;;5041387;28;8841;-72
2020/12/30 01:32:21;;;;;;;;;1.33;1.33;;;;;;;;5043930;28;8945;-72
2020/12/30 01:34:52;;;;;;;;;2.00;2.00;;;;;;;;5040632;28;9624;-72
2020/12/30 01:37:18;;;;;;;;;1.00;1.00;;;;;;;;5040873;28;8834;-72
2020/12/30 01:39:44;;;;;;;;;2.00;2.00;;;;;;;;5043451;28;12259;-73
2020/12/30 01:42:10;;;;;;;;;1.33;1.33;;;;;;;;5041130;28;8957;-72
2020/12/30 01:44:36;;;;;;;;;1.00;1.00;;;;;;;;5042464;28;8845;-73
2020/12/30 01:47:03;;;;;;;;;4.67;2.00;;;;;;;;5042368;28;8841;-72
2020/12/30 01:49:28;;;;;;;;;1.33;1.33;;;;;;;;5041276;28;8857;-72
2020/12/30 01:51:56;;;;;;;;;3.67;2.00;;;;;;;;5043164;28;11504;-72
2020/12/30 01:54:22;;;;;;;;;3.00;2.00;;;;;;;;5040063;28;8862;-72
2020/12/30 01:56:48;;;;;;;;;2.00;2.00;;;;;;;;5043827;28;9529;-72
2020/12/30 01:59:15;;;;;;;;;1.00;0.00;;;;;;;;5040488;28;8992;-72
2020/12/30 02:01:42;;;;;;;;;2.00;2.00;;;;;;;;5042763;28;11563;-72
2020/12/30 02:04:10;;;;;;;;;2.00;2.00;;;;;;;;5040948;28;11762;-71
2020/12/30 02:06:36;;;;;;;;;2.00;2.00;;;;;;;;5041921;28;11525;-73
2020/12/30 02:09:04;;;;;;;;;1.00;1.00;;;;;;;;5041655;28;11524;-72
2020/12/30 02:11:30;;;;;;;;;1.00;1.00;;;;;;;;5041018;28;11518;-72
2020/12/30 02:14:04;;;;;;;;;0.00;0.00;;;;;;;;5042517;28;11595;-73
2020/12/30 02:16:30;;;;;;;;;1.00;1.00;;;;;;;;5040924;28;11461;-72
2020/12/30 02:18:57;;;;;;;;;1.00;1.00;;;;;;;;5042337;28;11489;-73
2020/12/30 02:21:23;;;;;;;;;2.67;2.00;;;;;;;;5040107;28;9586;-72
2020/12/30 02:23:51;;;;;;;;;2.00;2.00;;;;;;;;5043367;28;8826;-72
2020/12/30 02:26:17;;;;;;;;;3.00;3.00;;;;;;;;5039935;28;8838;-73
2020/12/30 02:28:43;;;;;;;;;7.67;5.67;;;;;;;;5042775;28;8876;-72
2020/12/30 02:31:09;;;;;;;;;5.00;3.00;;;;;;;;5040283;28;10728;-72
2020/12/30 02:33:35;;;;;;;;;12.33;10.00;;;;;;;;5041531;28;8829;-71
2020/12/30 02:36:01;;;;;;;;;7.00;7.00;;;;;;;;5041235;28;8853;-73
2020/12/30 02:38:27;;;;;;;;;10.00;8.33;;;;;;;;5040467;28;8834;-72
2020/12/30 02:40:53;;;;;;;;;11.00;10.67;;;;;;;;5042395;28;8845;-73
2020/12/30 02:43:20;;;;;;;;;10.67;8.33;;;;;;;;5039261;28;8842;-73
2020/12/30 02:45:46;;;;;;;;;9.67;9.00;;;;;;;;5042912;28;8910;-72
2020/12/30 02:48:12;;;;;;;;;9.33;7.67;;;;;;;;5042780;28;8837;-72
2020/12/30 02:50:38;;;;;;;;;10.67;8.33;;;;;;;;5039929;28;8853;-72
2020/12/30 02:53:04;;;;;;;;;15.00;10.67;;;;;;;;5040823;28;8888;-72
2020/12/30 02:55:30;;;;;;;;;10.00;10.00;;;;;;;;5040740;28;8922;-71
2020/12/30 02:57:56;;;;;;;;;9.33;9.00;;;;;;;;5039955;28;8853;-72
2020/12/30 03:00:22;;;;;;;;;14.33;13.00;;;;;;;;5041946;28;8848;-72
2020/12/30 03:02:48;;;;;;;;;14.00;11.00;;;;;;;;5039286;28;8928;-72
2020/12/30 03:05:14;;;;;;;;;8.33;7.00;;;;;;;;5038981;28;8878;-72
2020/12/30 03:07:40;;;;;;;;;14.00;13.00;;;;;;;;5041674;28;8868;-72
2020/12/30 03:10:06;;;;;;;;;17.00;13.33;;;;;;;;5039883;28;9452;-71
2020/12/30 03:12:32;;;;;;;;;10.67;10.67;;;;;;;;5040442;28;8838;-72
2020/12/30 03:14:58;;;;;;;;;9.33;9.33;;;;;;;;5041949;28;8853;-72
2020/12/30 03:17:25;;;;;;;;;16.00;12.67;;;;;;;;5041413;28;8850;-71
2020/12/30 03:19:51;;;;;;;;;11.00;10.00;;;;;;;;5038771;28;8853;-71
2020/12/30 03:22:17;;;;;;;;;10.00;10.00;;;;;;;;5042322;28;8922;-73
2020/12/30 03:24:43;;;;;;;;;9.33;7.00;;;;;;;;5038142;28;8854;-72
2020/12/30 03:27:09;;;;;;;;;17.00;11.00;;;;;;;;5041298;28;9057;-73
2020/12/30 03:29:35;;;;;;;;;7.67;7.67;;;;;;;;5040275;28;8973;-72
2020/12/30 03:32:01;;;;;;;;;12.67;12.33;;;;;;;;5042710;28;8845;-73
2020/12/30 03:34:27;;;;;;;;;11.67;11.67;;;;;;;;5042379;28;8837;-72
2020/12/30 03:36:54;;;;;;;;;19.33;12.67;;;;;;;;5038533;28;8841;-72
2020/12/30 03:39:20;;;;;;;;;17.00;13.00;;;;;;;;5038527;28;8865;-71
2020/12/30 03:41:46;;;;;;;;;15.33;13.00;;;;;;;;5041942;28;8922;-72
2020/12/30 03:44:12;;;;;;;;;10.67;10.00;;;;;;;;5038591;28;8841;-72
2020/12/30 03:46:37;;;;;;;;;14.00;11.00;;;;;;;;5040740;28;8854;-73
2020/12/30 03:49:03;;;;;;;;;14.33;11.67;;;;;;;;5039489;28;8850;-73
2020/12/30 03:51:30;;;;;;;;;17.33;13.00;;;;;;;;5039450;28;8854;-73
2020/12/30 03:53:56;;;;;;;;;18.33;16.67;;;;;;;;5040455;28;8830;-73
2020/12/30 03:56:22;;;;;;;;;18.67;18.00;;;;;;;;5038131;28;8922;-73
2020/12/30 03:58:48;;;;;;;;;21.33;18.00;;;;;;;;5041753;28;8837;-74
2020/12/30 04:01:14;;;;;;;;;14.33;14.33;;;;;;;;5038336;28;8867;-72
2020/12/30 04:03:40;;;;;;;;;16.33;15.67;;;;;;;;5040620;28;8928;-72
2020/12/30 04:06:06;;;;;;;;;18.67;18.67;;;;;;;;5039415;28;8845;-73
2020/12/30 04:08:33;;;;;;;;;18.67;17.67;;;;;;;;5039510;28;8826;-72
2020/12/30 04:10:59;;;;;;;;;18.67;17.67;;;;;;;;5041629;28;8877;-72
2020/12/30 04:13:25;;;;;;;;;16.67;15.33;;;;;;;;5040622;28;8874;-72
2020/12/30 04:15:50;;;;;;;;;24.67;19.00;;;;;;;;5038112;28;8922;-72
2020/12/30 04:18:16;;;;;;;;;25.33;20.67;;;;;;;;5041423;28;8860;-72
2020/12/30 04:20:42;;;;;;;;;23.33;23.33;;;;;;;;5037969;28;8861;-72
2020/12/30 04:23:08;;;;;;;;;21.67;20.33;;;;;;;;5040348;28;8911;-72
2020/12/30 04:25:35;;;;;;;;;23.33;20.67;;;;;;;;5039055;28;9534;-72
2020/12/30 04:28:01;;;;;;;;;25.00;21.00;;;;;;;;5041797;28;8871;-72
2020/12/30 04:30:27;;;;;;;;;21.33;21.00;;;;;;;;5038685;28;8841;-72
2020/12/30 04:32:53;;;;;;;;;17.00;16.33;;;;;;;;5040760;28;8926;-72
2020/12/30 04:35:19;;;;;;;;;19.00;16.33;;;;;;;;5038127;28;8868;-72
2020/12/30 04:37:45;;;;;;;;;17.67;15.67;;;;;;;;5041439;28;8837;-73
2020/12/30 04:40:11;;;;;;;;;20.00;16.67;;;;;;;;5044493;28;8919;-73
2020/12/30 04:42:38;;;;;;;;;23.33;21.67;;;;;;;;5042671;28;8864;-71
2020/12/30 04:45:05;;;;;;;;;22.67;22.00;;;;;;;;5043693;28;8861;-73
2020/12/30 04:47:31;;;;;;;;;23.33;22.67;;;;;;;;5043239;28;8910;-73
2020/12/30 04:49:58;;;;;;;;;26.33;21.33;;;;;;;;5042834;28;8834;-72
2020/12/30 04:52:26;;;;;;;;;24.67;22.00;;;;;;;;5044290;28;8837;-72
2020/12/30 04:54:52;;;;;;;;;27.67;25.67;;;;;;;;5041478;28;8896;-72
2020/12/30 04:57:23;;;;;;;;;25.00;25.00;;;;;;;;5045015;28;8907;-72
2020/12/30 04:59:52;;;;;;;;;25.00;22.33;;;;;;;;5041265;28;8857;-72
2020/12/30 05:02:22;;;;;;;;;24.33;20.33;;;;;;;;5044848;28;8825;-73
2020/12/30 05:04:48;;;;;;;;;20.00;18.00;;;;;;;;5044179;28;8829;-73
2020/12/30 05:07:14;;;;;;;;;29.67;22.00;;;;;;;;5041216;28;8853;-73
2020/12/30 05:09:41;;;;;;;;;15.00;15.00;;;;;;;;5043688;28;9601;-73
2020/12/30 05:12:11;;;;;;;;;10.00;10.00;;;;;;;;5042228;28;8834;-73
2020/12/30 05:14:37;;;;;;;;;8.00;8.00;;;;;;;;5043082;28;8854;-72
2020/12/30 05:17:04;;;;;;;;;5.67;5.67;;;;;;;;5042619;28;8833;-72
2020/12/30 05:19:30;;;;;;;;;5.33;5.33;;;;;;;;5040748;28;9006;-72
2020/12/30 05:21:56;;;;;;;;;4.67;4.00;;;;;;;;5042146;28;8837;-72
2020/12/30 05:24:23;;;;;;;;;2.00;2.00;;;;;;;;5043605;28;8845;-73
2020/12/30 05:26:49;;;;;;;;;2.67;2.67;;;;;;;;5040916;28;8842;-73
2020/12/30 05:29:15;;;;;;;;;2.33;1.33;;;;;;;;5044440;28;8837;-73
2020/12/30 05:31:41;;;;;;;;;3.33;1.00;;;;;;;;5040681;28;9002;-73
2020/12/30 05:34:08;;;;;;;;;0.00;0.00;;;;;;;;5043531;28;8919;-73
2020/12/30 05:36:34;;;;;;;;;2.00;0.67;;;;;;;;5041402;28;8917;-73
2020/12/30 05:39:00;;;;;;;;;0.00;0.00;;;;;;;;5042282;28;8853;-73
2020/12/30 05:41:26;;;;;;;;;0.00;0.00;;;;;;;;5042710;28;8956;-73
2020/12/30 05:43:52;;;;;;;;;1.67;0.00;;;;;;;;5041068;28;8883;-73
2020/12/30 05:46:25;;;;;;;;;1.00;1.00;;;;;;;;5043701;28;8964;-73
2020/12/30 05:48:53;;;;;;;;;0.00;0.00;;;;;;;;5040846;28;8837;-73
2020/12/30 05:51:26;;;;;;;;;0.00;0.00;;;;;;;;5043554;28;8927;-73
2020/12/30 05:54:06;;;;;;;;;0.67;0.67;;;;;;;;5040898;28;8834;-73
2020/12/30 05:56:33;;;;;;;;;0.00;0.00;;;;;;;;5041570;28;8845;-73
2020/12/30 05:59:00;;;;;;;;;0.67;0.67;;;;;;;;5041907;28;8956;-73
2020/12/30 06:01:27;;;;;;;;;2.00;0.00;;;;;;;;5042387;28;8863;-73
2020/12/30 06:03:53;;;;;;;;;2.00;1.00;;;;;;;;5040977;28;9625;-73
2020/12/30 06:06:20;;;;;;;;;1.00;1.00;;;;;;;;5043286;28;8961;-73
2020/12/30 06:08:48;;;;;;;;;1.67;1.67;;;;;;;;5040431;28;8907;-73
2020/12/30 06:11:15;;;;;;;;;1.33;1.00;;;;;;;;5040099;28;8837;-73
2020/12/30 06:13:43;;;;;;;;;2.00;2.00;;;;;;;;5043098;28;8837;-71
2020/12/30 06:16:13;;;;;;;;;6.33;5.00;;;;;;;;5040424;28;8849;-71
2020/12/30 06:18:39;;;;;;;;;3.33;3.33;;;;;;;;5042460;28;9621;-72
2020/12/30 06:21:07;;;;;;;;;2.00;2.00;;;;;;;;5040736;28;8861;-73
2020/12/30 06:23:34;;;;;;;;;4.33;4.00;;;;;;;;5041772;28;8846;-73
2020/12/30 06:26:03;;;;;;;;;4.00;2.00;;;;;;;;5041475;28;8829;-72
2020/12/30 06:28:32;;;;;;;;;2.00;2.00;;;;;;;;5041141;28;8962;-71
2020/12/30 06:31:01;;;;;;;;;2.00;2.00;;;;;;;;5041553;28;8848;-72
2020/12/30 06:33:27;;;;;;;;;4.00;4.00;;;;;;;;5040826;28;8841;-73
2020/12/30 06:35:54;;;;;;;;;6.00;6.00;;;;;;;;5042006;28;8930;-72
2020/12/30 12:25:06;;;;;;;;;6.00;4.00;;;;;;;;5062711;27;14227;-73
2020/12/30 12:27:32;;;;;;;;;4.33;3.67;;;;;;;;5046880;28;8848;-74
2020/12/30 12:29:58;;;;;;;;;3.33;3.33;;;;;;;;5047059;28;8840;-76
2020/12/30 12:32:24;;;;;;;;;4.67;4.67;;;;;;;;5046737;28;8852;-80
2020/12/30 12:34:51;;;;;;;;;7.00;7.00;;;;;;;;5047486;28;8933;-78
2020/12/30 12:37:18;;;;;;;;;6.00;6.00;;;;;;;;5043963;28;8855;-78
2020/12/30 12:39:46;;;;;;;;;6.00;3.00;;;;;;;;5044739;28;9619;-76
2020/12/30 12:42:16;;;;;;;;;6.00;6.00;;;;;;;;5045886;28;8875;-73
2020/12/30 12:44:42;;;;;;;;;6.67;5.33;;;;;;;;5042106;28;8868;-76
2020/12/30 12:47:08;;;;;;;;;7.00;5.00;;;;;;;;5044673;28;8864;-76
2020/12/30 12:49:34;;;;;;;;;10.00;5.33;;;;;;;;5043243;28;9300;-79
2020/12/30 12:52:00;;;;;;;;;5.00;5.00;;;;;;;;5043506;28;8832;-76
2020/12/30 12:54:26;;;;;;;;;9.67;8.33;;;;;;;;5042606;28;8875;-77
2020/12/30 12:56:56;;;;;;;;;7.00;7.00;;;;;;;;5043707;28;11550;-79
2020/12/30 12:59:23;;;;;;;;;7.00;7.00;;;;;;;;5043260;28;8859;-77
2020/12/30 13:01:49;;;;;;;;;10.00;7.00;;;;;;;;5044573;28;8880;-77
2020/12/30 13:04:15;;;;;;;;;5.33;5.33;;;;;;;;5042772;28;8840;-76
2020/12/30 13:06:42;;;;;;;;;7.00;6.00;;;;;;;;5042166;28;8938;-75
2020/12/30 13:09:11;;;;;;;;;5.67;5.67;;;;;;;;5043420;28;8937;-75
2020/12/30 13:11:47;;;;;;;;;5.33;5.33;;;;;;;;5042576;28;8957;-75
2020/12/30 13:14:13;;;;;;;;;5.33;3.00;;;;;;;;5041556;28;12287;-74
2020/12/30 13:16:45;;;;;;;;;2.00;2.00;;;;;;;;5043199;28;9696;-76
2020/12/30 13:19:11;;;;;;;;;3.00;1.67;;;;;;;;5042216;28;11517;-76
2020/12/30 13:21:37;;;;;;;;;2.33;2.00;;;;;;;;5043003;28;11533;-76
2020/12/30 13:24:03;;;;;;;;;2.33;2.33;;;;;;;;5045030;28;11543;-73
2020/12/30 13:26:29;;;;;;;;;3.00;1.00;;;;;;;;5046120;28;8909;-79
2020/12/30 13:28:55;;;;;;;;;1.00;1.00;;;;;;;;5045828;28;11523;-78
2020/12/30 13:31:21;;;;;;;;;1.00;1.00;;;;;;;;5042791;28;8886;-78
2020/12/30 13:33:48;;;;;;;;;2.00;1.00;;;;;;;;5045561;28;8846;-76
2020/12/30 13:36:18;;;;;;;;;2.25;1.00;;;;;;;;5033779;28;8864;-72
2020/12/30 13:38:44;;;;;;;;;0.25;0.25;;;;;;;;5029265;28;11517;-75
2020/12/30 13:41:10;;;;;;;;;5.00;0.50;;;;;;;;5032834;28;12420;-80
2020/12/30 13:43:36;;;;;;;;;1.00;1.00;;;;;;;;5032543;28;9662;-78
2020/12/30 13:46:02;;;;;;;;;3.00;1.25;;;;;;;;5032975;28;8864;-79
2020/12/30 13:48:28;;;;;;;;;1.00;1.00;;;;;;;;5032219;28;8856;-83
2020/12/30 13:50:55;;;;;;;;;1.00;1.00;;;;;;;;5031868;28;8863;-78
2020/12/30 13:53:21;;;;;;;;;0.50;0.50;;;;;;;;5031102;28;8848;-78
2020/12/30 13:55:47;;;;;;;;;2.00;2.00;;;;;;;;5031665;28;11542;-76
2020/12/30 13:58:13;;;;;;;;;1.00;1.00;;;;;;;;5031899;28;8860;-79
2020/12/30 14:00:39;;;;;;;;;1.00;1.00;;;;;;;;5031475;28;11495;-83
2020/12/30 14:03:04;;;;;;;;;1.50;1.00;;;;;;;;5031139;28;10277;-75
2020/12/30 14:05:35;;;;;;;;;0.50;0.50;;;;;;;;5030548;28;8867;-73
2020/12/30 14:08:02;;;;;;;;;1.00;1.00;;;;;;;;5030545;28;9651;-73
2020/12/30 14:10:28;;;;;;;;;0.25;0.25;;;;;;;;5027091;28;11528;-76
2020/12/30 14:12:54;;;;;;;;;1.00;1.00;;;;;;;;5029187;28;11525;-76
2020/12/30 14:15:20;;;;;;;;;0.75;0.75;;;;;;;;5030447;28;11580;-75
2020/12/30 14:17:46;;;;;;;;;1.00;1.00;;;;;;;;5033821;28;8859;-77
2020/12/30 14:20:12;;;;;;;;;1.50;0.50;;;;;;;;5042529;28;8871;-77
2020/12/30 14:22:38;;;;;;;;;1.25;1.00;;;;;;;;5036388;28;8874;-73
2020/12/30 14:25:05;;;;;;;;;0.25;0.25;;;;;;;;5030570;28;11492;-79
2020/12/30 14:27:31;;;;;;;;;2.00;0.00;;;;;;;;5031282;28;8864;-79
2020/12/30 14:29:57;;;;;;;;;0.50;0.50;;;;;;;;5029640;28;13021;-75
2020/12/30 14:32:23;;;;;;;;;1.00;1.00;;;;;;;;5031194;28;11650;-84
2020/12/30 14:34:49;;;;;;;;;1.00;1.00;;;;;;;;5031635;28;8859;-83
2020/12/30 14:37:15;;;;;;;;;1.00;1.00;;;;;;;;5031400;28;8840;-75
2020/12/30 14:39:42;;;;;;;;;1.00;1.00;;;;;;;;5031933;28;8929;-77
2020/12/30 14:42:09;;;;;;;;;3.00;1.33;;;;;;;;5031008;28;8921;-71
2020/12/30 14:44:35;;;;;;;;;2.00;1.00;;;;;;;;5027789;28;11531;-67
2020/12/30 14:47:01;;;;;;;;;1.00;1.00;;;;;;;;5027270;28;12268;-66
2020/12/30 14:49:26;;;;;;;;;1.00;1.00;;;;;;;;5028546;28;8907;-67
2020/12/30 14:51:52;;;;;;;;;1.00;1.00;;;;;;;;5029070;28;8883;-67
2020/12/30 14:54:18;;;;;;;;;5.00;5.00;;;;;;;;5029344;28;8860;-67
2020/12/30 14:56:44;;;;;;;;;0.00;0.00;;;;;;;;5029711;28;8933;-67
2020/12/30 14:59:11;;;;;;;;;1.00;1.00;;;;;;;;5029863;28;11523;-65
2020/12/30 15:01:37;;;;;;;;;1.00;1.00;;;;;;;;5031329;28;11523;-75
2020/12/30 15:04:03;;;;;;;;;4.33;3.00;;;;;;;;5030765;28;11599;-78
2020/12/30 15:06:30;;;;;;;;;2.00;2.00;;;;;;;;5030020;28;11518;-73
2020/12/30 15:08:56;;;;;;;;;4.33;2.00;;;;;;;;5030597;28;8840;-75
2020/12/30 15:11:22;;;;;;;;;3.00;2.00;;;;;;;;5030670;28;11503;-75
2020/12/30 15:13:49;;;;;;;;;2.00;2.00;;;;;;;;5030834;28;11549;-74
2020/12/30 15:16:16;;;;;;;;;2.00;2.00;;;;;;;;5030176;28;8848;-73
2020/12/30 15:18:42;;;;;;;;;6.67;2.67;;;;;;;;5030504;28;11620;-77
2020/12/30 15:21:08;;;;;;;;;1.00;1.00;;;;;;;;5030538;28;11522;-75
2020/12/30 15:23:34;;;;;;;;;4.33;2.67;;;;;;;;5030129;28;8910;-78
2020/12/30 15:26:00;;;;;;;;;2.00;2.00;;;;;;;;5030782;28;12216;-79
2020/12/30 15:28:26;;;;;;;;;3.67;3.67;;;;;;;;5031405;28;11546;-79
2020/12/30 15:30:52;;;;;;;;;3.67;3.67;;;;;;;;5031880;28;8840;-78
2020/12/30 15:33:19;;;;;;;;;7.67;5.33;;;;;;;;5031658;28;8964;-78
2020/12/30 15:35:45;;;;;;;;;9.00;8.33;;;;;;;;5031069;28;8829;-77
2020/12/30 15:38:11;;;;;;;;;7.00;7.00;;;;;;;;5030577;28;11567;-75
2020/12/30 15:40:37;;;;;;;;;11.00;9.00;;;;;;;;5030430;28;8856;-78
2020/12/30 15:43:03;;;;;;;;;9.33;7.00;;;;;;;;5030516;28;11592;-77
2020/12/30 15:45:29;;;;;;;;;9.00;9.00;;;;;;;;5027883;28;8844;-71
2020/12/30 15:47:55;;;;;;;;;9.33;9.00;;;;;;;;5029473;28;8902;-72
2020/12/30 15:50:22;;;;;;;;;15.00;14.00;;;;;;;;5029725;28;8851;-72
2020/12/30 15:52:48;;;;;;;;;18.33;15.00;;;;;;;;5029895;28;8921;-72
2020/12/30 15:55:14;;;;;;;;;16.00;14.00;;;;;;;;5030114;28;8852;-73
2020/12/30 15:57:40;;;;;;;;;16.33;12.33;;;;;;;;5029481;28;8883;-73
2020/12/30 16:00:06;;;;;;;;;15.00;14.00;;;;;;;;5030382;28;8922;-72
2020/12/30 16:02:32;;;;;;;;;15.00;14.00;;;;;;;;5029648;28;8840;-74
2020/12/30 16:04:59;;;;;;;;;14.00;14.00;;;;;;;;5029986;28;8901;-74
2020/12/30 16:07:26;;;;;;;;;14.00;11.33;;;;;;;;5029345;28;8860;-73
2020/12/30 16:09:52;;;;;;;;;15.00;15.00;;;;;;;;5030091;28;8860;-79
2020/12/30 16:12:18;;;;;;;;;12.67;12.67;;;;;;;;5029811;28;9645;-80
2020/12/30 16:14:44;;;;;;;;;14.00;12.00;;;;;;;;5030048;28;8835;-82
2020/12/30 16:17:11;;;;;;;;;13.67;11.00;;;;;;;;5029415;28;8851;-77
2020/12/30 16:19:37;;;;;;;;;10.00;9.67;;;;;;;;5029890;28;8840;-79
2020/12/30 16:22:03;;;;;;;;;13.67;8.33;;;;;;;;5030021;28;8946;-78
2020/12/30 16:24:30;;;;;;;;;9.67;9.33;;;;;;;;5029009;28;8876;-79
2020/12/30 16:26:56;;;;;;;;;9.33;9.33;;;;;;;;5029587;28;8875;-77
2020/12/30 16:29:22;;;;;;;;;12.33;10.67;;;;;;;;5030546;28;11562;-75
2020/12/30 16:31:48;;;;;;;;;14.67;11.33;;;;;;;;5029850;28;8874;-74
2020/12/30 16:34:15;;;;;;;;;11.00;10.33;;;;;;;;5029769;28;8848;-77
2020/12/30 16:36:41;;;;;;;;;14.67;14.00;;;;;;;;5029573;28;8840;-76
2020/12/30 16:39:07;;;;;;;;;14.00;14.00;;;;;;;;5029406;28;9029;-77
2020/12/30 16:42:53;;;;;;;;;11.00;11.00;;;;;10.00;73.26;100271.97;4999728;27;882392;-83
2020/12/30 16:45:19;;;;;;;;;15.00;14.33;;;;;10.37;71.76;100268.91;5076757;28;10520;-76
2020/12/30 16:47:45;;;;;;;;;14.00;11.00;;;;;10.37;71.46;100268.91;5075838;28;8842;-76
2020/12/30 16:50:12;;;;;;;;;21.67;16.33;;;;;10.37;70.69;100275.03;5079029;28;8843;-69
2020/12/30 16:52:38;;;;;;;;;25.33;23.33;;;;;10.17;72.17;100265.19;5075896;28;8825;-68
2020/12/30 16:55:04;;;;;;;;;31.33;28.33;;;;;9.80;72.39;100269.13;5074694;28;9010;-74
2020/12/30 16:57:30;;;;;;;;;25.00;23.00;;;;;10.09;72.60;100261.66;5076382;28;8830;-72
2020/12/30 16:59:57;;;;;;;;;24.33;21.67;;;;;10.02;73.05;100259.78;5076553;28;8845;-72
2020/12/30 17:02:25;;;;;;;;;21.33;18.00;;;;;10.34;71.65;100274.97;5074168;28;8865;-72
2020/12/30 17:04:51;;;;;;;;;27.00;23.00;;;;;10.25;71.39;100279.25;5074396;28;8843;-71
2020/12/30 17:07:17;;;;;;;;;25.00;23.67;;;;;10.02;72.22;100280.69;5072317;28;8882;-72
2020/12/30 17:09:43;;;;;;;;;22.00;21.00;;;;;10.20;72.12;100280.94;5073186;28;8849;-72
2020/12/30 17:12:10;;;;;;;;;18.00;18.00;;;;;10.24;71.76;100290.59;5077176;28;9590;-73
2020/12/30 17:14:36;;;;;;;;;19.67;18.33;;;;;9.77;72.67;100295.22;5073807;28;8861;-72
2020/12/30 17:17:03;;;;;;;;;15.33;15.33;;;;;9.80;73.39;100302.22;5073262;28;9425;-79
2020/12/30 17:19:29;;;;;;;;;14.00;13.33;;;;;9.75;73.60;100293.44;5069392;28;8849;-79
2020/12/30 17:21:57;;;;;;;;;10.33;10.00;;;;;9.48;74.62;100300.94;5073811;28;8837;-76
2020/12/30 17:24:25;;;;;;;;;18.00;17.33;;;;;9.66;73.55;100295.97;5075371;28;8854;-78
2020/12/30 17:26:55;;;;;;;;;18.00;15.67;;;;;9.88;73.30;100298.00;5069314;28;8873;-81
2020/12/30 17:29:21;;;;;;;;;21.67;15.67;;;;;10.04;72.24;100299.97;5078104;28;8850;-79
2020/12/30 17:31:48;;;;;;;;;15.33;14.67;;;;;10.14;71.89;100307.03;5073247;28;8845;-75
2020/12/30 17:34:15;;;;;;;;;13.00;12.33;;;;;10.08;72.28;100301.75;5065874;28;8875;-86
2020/12/30 17:36:46;;;;;;;;;11.00;11.00;;;;;9.95;72.24;100305.03;5076003;28;8838;-82
2020/12/30 17:39:13;;;;;;;;;13.67;13.67;;;;;10.03;72.10;100292.94;5072432;28;8981;-84
2020/12/30 17:41:39;;;;;;;;;14.00;14.00;;;;;9.81;73.17;100301.41;5074830;28;8835;-77
2020/12/30 17:44:09;;;;;;;;;20.33;18.00;;;;;9.81;73.01;100298.78;5069668;28;8872;-77
2020/12/30 17:46:37;;;;;;;;;19.33;17.67;;;;;9.93;72.29;100306.78;5074986;28;9004;-78
2020/12/30 17:49:04;;;;;;;;;14.00;14.00;;;;;9.91;72.49;100313.69;5072353;28;9016;-77
2020/12/30 17:51:32;;;;;;;;;13.00;13.00;;;;;9.44;73.21;100312.25;5062873;28;9010;-78
2020/12/30 17:56:06;;;;;;;;;15.33;11.33;;;;;;;;5048119;28;11387;-82
2020/12/30 17:58:33;;;;;;;;;17.33;13.67;;;;;;;;5066813;28;8867;-77
2020/12/30 18:01:03;;;;;;;;;13.33;12.00;;;;;;;;5064405;28;11527;-83
2020/12/30 18:03:28;;;;;;;;;14.67;13.33;;;;;;;;5068902;28;8865;-78
2020/12/30 18:05:55;;;;;;;;;14.00;10.33;;;;;;;;5066106;28;9570;-79
2020/12/30 18:08:21;;;;;;;;;19.00;17.00;;;;;;;;5066658;28;8835;-79
2020/12/30 18:10:47;;;;;;;;;21.00;21.00;;;;;;;;5068259;28;8880;-77
2020/12/30 18:13:14;;;;;;;;;20.33;18.00;;;;;;;;5074885;28;8834;-76
2020/12/30 18:15:40;;;;;;;;;17.33;15.00;;;;;;;;5080106;28;8843;-76
2020/12/30 18:18:06;;;;;;;;;19.67;15.00;;;;;;;;5075268;28;8836;-75
2020/12/30 18:20:33;;;;;;;;;19.67;15.00;;;;;;;;5074975;28;8853;-80
2020/12/30 18:22:59;;;;;;;;;13.67;13.00;;;;;;;;5075731;28;8832;-76
2020/12/30 18:25:25;;;;;;;;;18.00;18.00;;;;;;;;5075341;28;8878;-82
2020/12/30 18:27:51;;;;;;;;;17.00;14.67;;;;;;;;5076313;28;8840;-79
2020/12/30 18:30:18;;;;;;;;;13.33;7.67;;;;;;;;5076768;28;8837;-78
2020/12/30 18:32:44;;;;;;;;;19.00;17.33;;;;;;;;5075656;28;8869;-76
2020/12/30 18:35:10;;;;;;;;;19.67;15.67;;;;;;;;5074139;28;9613;-73
2020/12/30 18:37:36;;;;;;;;;18.33;17.67;;;;;;;;5076895;28;8870;-73
2020/12/30 18:40:03;;;;;;;;;15.00;14.00;;;;;;;;5072505;28;8886;-77
2020/12/30 18:42:29;;;;;;;;;18.00;15.00;;;;;;;;5072453;28;8866;-76
2020/12/30 18:44:55;;;;;;;;;25.33;18.67;;;;;;;;5069385;28;8855;-77
2020/12/30 18:47:23;;;;;;;;;26.67;23.00;;;;;;;;5075351;28;9621;-79
2020/12/30 18:49:49;;;;;;;;;9.33;7.33;;;;;;;;5072173;28;8952;-76
2020/12/30 18:52:15;;;;;;;;;21.00;19.00;;;;;;;;5072279;28;8847;-74
2020/12/30 18:54:41;;;;;;;;;21.00;18.33;;;;;;;;5076376;28;8851;-82
2020/12/30 18:57:07;;;;;;;;;22.00;18.00;;;;;;;;5066454;28;8879;-79
2020/12/30 18:59:33;;;;;;;;;23.33;19.33;;;;;;;;5075379;28;8835;-75
2020/12/30 19:01:59;;;;;;;;;26.33;23.33;;;;;;;;5077155;28;8870;-78
2020/12/30 19:04:26;;;;;;;;;24.00;18.00;;;;;;;;5075843;28;9560;-76
2020/12/30 19:06:52;;;;;;;;;21.67;19.67;;;;;;;;5065102;28;8898;-76
2020/12/30 19:09:18;;;;;;;;;18.00;18.00;;;;;;;;5064155;28;8871;-82
2020/12/30 19:11:44;;;;;;;;;20.33;19.00;;;;;;;;5072145;28;8835;-83
2020/12/30 19:14:10;;;;;;;;;26.67;24.67;;;;;;;;5065935;28;8860;-82
2020/12/30 19:16:36;;;;;;;;;22.00;19.33;;;;;;;;5059970;28;8870;-83
2020/12/30 19:19:03;;;;;;;;;22.00;21.67;;;;;;;;5065182;28;8930;-87
2020/12/30 19:21:30;;;;;;;;;23.00;19.67;;;;;;;;5052489;28;8850;-85
2020/12/30 19:23:56;;;;;;;;;26.00;23.00;;;;;;;;5067547;28;8819;-78
2020/12/30 19:26:22;;;;;;;;;19.67;18.00;;;;;;;;5057557;28;8862;-79
2020/12/30 19:28:49;;;;;;;;;25.00;25.00;;;;;;;;5060074;28;8874;-80
2020/12/30 19:31:22;;;;;;;;;20.67;19.00;;;;;;;;5057775;28;8842;-78
2020/12/30 19:33:50;;;;;;;;;25.67;23.33;;;;;;;;5057714;28;8854;-84
2020/12/30 19:36:20;;;;;;;;;24.00;22.67;;;;;;;;5069345;28;8865;-88
2020/12/30 19:38:48;;;;;;;;;30.00;26.00;;;;;;;;5139903;22;9001;-86
2020/12/30 19:41:17;;;;;;;;;26.33;23.00;;;;;;;;5032474;28;8852;-85
2020/12/30 19:43:43;;;;;;;;;22.33;22.00;;;;;;;;5030606;28;8853;-87
2020/12/30 19:46:09;;;;;;;;;25.00;22.00;;;;;;;;5026812;28;8843;-84
2020/12/30 19:48:37;;;;;;;;;26.67;23.00;;;;;;;;5024970;28;8883;-86
2020/12/30 19:51:03;;;;;;;;;23.00;21.00;;;;;;;;5022189;28;8865;-79
2020/12/30 19:53:29;;;;;;;;;22.00;22.00;;;;;;;;5017420;28;8863;-75
2020/12/30 19:55:56;;;;;;;;;22.00;21.00;;;;;;;;5019194;28;8879;-76
2020/12/30 19:58:22;;;;;;;;;18.00;14.67;;;;;;;;5019951;28;8868;-75
2020/12/30 20:00:49;;;;;;;;;17.67;17.67;;;;;;;;5021771;28;8949;-73
2020/12/30 20:03:15;;;;;;;;;18.33;17.33;;;;;;;;5023131;28;8851;-80
2020/12/30 20:05:41;;;;;;;;;16.33;15.00;;;;;;;;5021508;28;8979;-80
2020/12/30 20:08:07;;;;;;;;;16.33;16.33;;;;;;;;5022964;28;8868;-80